Time;durP1;ratioP1;P1;durP2;ratioP2;P2;SDS_P1;SDS_P2;PMS_P1;PMS_P2;Temp;Humidity;BMP_temperature;BMP_pressure;BME280_temperature;BME280_humidity;BME280_pressure;Samples;Min_cycle;Max_cycle;Signal;HPM_P1;HPM_P2
2022/04/03 00:00:07;;;;;;;;;;;;;;;-3.76;67.04;102283.88;6102513;23;19913;-72
2022/04/03 00:02:32;;;;;;;;;;;;;;;-3.77;67.31;102284.66;6101200;23;19936;-72
2022/04/03 00:04:58;;;;;;;;;;;;;;;-3.78;67.64;102290.53;6150303;23;19908;-72
2022/04/03 00:07:25;;;;;;;;;;;;;;;-3.76;67.76;102285.56;6098600;23;20012;-72
2022/04/03 00:09:50;;;;;;;;;;;;;;;-3.80;67.78;102284.44;6101410;23;19931;-72
2022/04/03 00:12:16;;;;;;;;;;;;;;;-3.85;67.62;102289.25;6102615;23;19913;-72
2022/04/03 00:14:41;;;;;;;;;;;;;;;-3.86;68.46;102290.03;6100376;23;20030;-72
2022/04/03 00:17:09;;;;;;;;;;;;;;;-3.82;68.00;102288.59;6099686;23;19916;-71
2022/04/03 00:19:34;;;;;;;;;;;;;;;-3.78;67.59;102289.66;6101924;23;20235;-72
2022/04/03 00:22:01;;;;;;;;;;;;;;;-3.74;68.32;102289.97;6124994;23;19908;-72
2022/04/03 00:24:26;;;;;;;;;;;;;;;-3.75;68.13;102283.09;6124960;23;19916;-72
2022/04/03 00:26:51;;;;;;;;;;;;;;;-3.76;67.94;102283.00;6126627;23;19920;-72
2022/04/03 00:29:17;;;;;;;;;;;;;;;-3.78;68.17;102281.97;6124110;23;20296;-72
2022/04/03 00:31:42;;;;;;;;;;;;;;;-3.85;67.83;102285.78;6126765;23;19928;-72
2022/04/03 00:34:07;;;;;;;;;;;;;;;-3.90;68.24;102280.34;6102810;23;20508;-72
2022/04/03 00:36:33;;;;;;;;;;;;;;;-3.91;68.36;102281.13;6102213;23;20335;-72
2022/04/03 00:38:59;;;;;;;;;;;;;;;-3.92;68.62;102273.31;6101979;23;19912;-73
2022/04/03 00:41:24;;;;;;;;;;;;;;;-3.96;68.80;102271.34;6103272;23;19913;-73
2022/04/03 00:43:50;;;;;;;;;;;;;;;-3.99;68.58;102274.59;6102095;23;19971;-73
2022/04/03 00:46:18;;;;;;;;;;;;;;;-4.06;68.33;102273.25;6102961;23;19916;-72
2022/04/03 00:48:44;;;;;;;;;;;;;;;-4.10;68.42;102283.19;6127372;23;19927;-72
2022/04/03 00:51:11;;;;;;;;;;;;;;;-4.14;68.79;102283.72;6102584;23;20003;-73
2022/04/03 00:53:36;;;;;;;;;;;;;;;-4.16;69.49;102285.31;6102013;23;19919;-72
2022/04/03 00:56:02;;;;;;;;;;;;;;;-4.14;68.19;102284.63;6102084;23;19913;-71
2022/04/03 00:58:31;;;;;;;;;;;;;;;-4.09;69.44;102284.97;6101629;23;19999;-71
2022/04/03 01:00:56;;;;;;;;;;;;;;;-4.03;69.16;102281.16;6127211;23;19983;-72
2022/04/03 01:03:22;;;;;;;;;;;;;;;-3.98;69.43;102284.03;6102070;23;19995;-72
2022/04/03 01:05:47;;;;;;;;;;;;;;;-3.96;69.86;102282.47;6126189;23;19913;-72
2022/04/03 01:08:13;;;;;;;;;;;;;;;-3.96;69.97;102279.03;6100514;23;19913;-72
2022/04/03 01:10:39;;;;;;;;;;;;;;;-3.97;70.02;102275.56;6101552;23;19916;-72
2022/04/03 01:13:04;;;;;;;;;;;;;;;-3.98;69.73;102273.78;6102015;23;19967;-72
2022/04/03 01:15:30;;;;;;;;;;;;;;;-3.99;69.36;102277.16;6103042;23;19909;-72
2022/04/03 01:17:55;;;;;;;;;;;;;;;-4.00;70.54;102281.34;6125783;23;19939;-72
2022/04/03 01:20:20;;;;;;;;;;;;;;;-3.98;70.10;102278.91;6126672;23;19943;-72
2022/04/03 01:22:46;;;;;;;;;;;;;;;-4.01;70.26;102273.56;6101964;23;20310;-72
2022/04/03 01:25:11;;;;;;;;;;;;;;;-4.04;69.73;102281.94;6126513;23;19916;-72
2022/04/03 01:27:37;;;;;;;;;;;;;;;-4.05;70.09;102276.69;6125614;23;19935;-72
2022/04/03 01:30:03;;;;;;;;;;;;;;;-4.06;70.11;102280.94;6127003;23;20002;-72
2022/04/03 01:32:28;;;;;;;;;;;;;;;-4.07;70.12;102279.16;6102338;23;20288;-73
2022/04/03 01:34:53;;;;;;;;;;;;;;;-4.08;70.14;102281.59;6101926;23;19919;-73
2022/04/03 01:37:19;;;;;;;;;;;;;;;-4.12;70.11;102275.38;6102295;23;19923;-71
2022/04/03 01:39:44;;;;;;;;;;;;;;;-4.11;70.55;102283.94;6102156;23;19987;-71
2022/04/03 01:42:10;;;;;;;;;;;;;;;-4.12;71.14;102274.47;6101624;23;19995;-72
2022/04/03 01:44:35;;;;;;;;;;;;;;;-4.11;70.96;102272.03;6101169;23;20323;-71
2022/04/03 01:47:01;;;;;;;;;;;;;;;-4.09;70.99;102277.28;6125847;23;20293;-72
2022/04/03 01:49:26;;;;;;;;;;;;;;;-4.11;70.94;102276.25;6102318;23;19917;-71
2022/04/03 01:51:51;;;;;;;;;;;;;;;-4.13;71.39;102271.03;6100147;23;19920;-71
2022/04/03 01:54:17;;;;;;;;;;;;;;;-4.13;71.41;102267.59;6102885;23;19916;-70
2022/04/03 01:56:42;;;;;;;;;;;;;;;-4.19;70.36;102266.38;6129121;23;19915;-72
2022/04/03 01:59:10;;;;;;;;;;;;;;;-4.20;70.74;102266.25;6101533;23;19913;-71
2022/04/03 02:01:38;;;;;;;;;;;;;;;-4.22;71.49;102266.16;6102399;23;19983;-73
2022/04/03 02:04:03;;;;;;;;;;;;;;;-4.19;70.85;102276.63;6103861;23;20010;-72
2022/04/03 02:06:29;;;;;;;;;;;;;;;-4.22;71.36;102262.72;6128880;23;20311;-71
2022/04/03 02:08:54;;;;;;;;;;;;;;;-4.22;71.69;102261.03;6102418;23;19923;-72
2022/04/03 02:11:19;;;;;;;;;;;;;;;-4.25;70.70;102260.81;6104123;23;20328;-71
2022/04/03 02:13:45;;;;;;;;;;;;;;;-4.31;71.31;102260.41;6127518;23;19913;-72
2022/04/03 02:16:12;;;;;;;;;;;;;;;-4.36;71.25;102265.16;6128255;23;19919;-72
2022/04/03 02:18:40;;;;;;;;;;;;;;;-4.39;71.02;102264.06;6127768;23;20003;-72
2022/04/03 02:21:05;;;;;;;;;;;;;;;-4.46;71.72;102256.72;6103753;23;19995;-72
2022/04/03 02:23:31;;;;;;;;;;;;;;;-4.52;71.54;102260.63;6127644;23;19956;-72
2022/04/03 02:25:56;;;;;;;;;;;;;;;-4.55;71.75;102265.50;6103122;23;20312;-72
2022/04/03 02:28:21;;;;;;;;;;;;;;;-4.60;71.68;102266.84;6127489;23;19923;-72
2022/04/03 02:30:47;;;;;;;;;;;;;;;-4.60;70.62;102268.50;6103899;23;19925;-72
2022/04/03 02:33:15;;;;;;;;;;;;;;;-4.65;70.99;102260.50;6103183;23;19923;-72
2022/04/03 02:35:40;;;;;;;;;;;;;;;-4.76;71.51;102261.41;6128779;23;19976;-72
2022/04/03 02:38:05;;;;;;;;;;;;;;;-4.84;71.75;102262.50;6102657;23;19920;-72
2022/04/03 02:40:31;;;;;;;;;;;;;;;-4.93;71.27;102263.63;6103575;23;19913;-72
2022/04/03 02:42:56;;;;;;;;;;;;;;;-4.97;71.57;102251.38;6103345;23;19911;-72
2022/04/03 02:45:24;;;;;;;;;;;;;;;-4.95;71.50;102265.16;6103298;23;19963;-72
2022/04/03 02:47:51;;;;;;;;;;;;;;;-4.94;72.42;102255.81;6124682;23;19968;-72
2022/04/03 02:50:17;;;;;;;;;;;;;;;-4.94;71.71;102258.34;6127939;23;19917;-72
2022/04/03 02:52:43;;;;;;;;;;;;;;;-4.99;72.98;102254.59;6127657;23;19919;-72
2022/04/03 02:55:09;;;;;;;;;;;;;;;-5.05;71.73;102267.81;6127955;23;20215;-72
2022/04/03 02:57:37;;;;;;;;;;;;;;;-5.10;72.16;102270.03;6101421;23;19917;-72
2022/04/03 03:00:03;;;;;;;;;;;;;;;-5.17;71.99;102264.31;6103314;23;19931;-73
2022/04/03 03:02:28;;;;;;;;;;;;;;;-5.22;72.51;102262.31;6127933;23;19912;-73
2022/04/03 03:04:54;;;;;;;;;;;;;;;-5.28;72.43;102266.09;6128275;23;20295;-72
2022/04/03 03:07:21;;;;;;;;;;;;;;;-5.32;71.96;102266.63;6102668;23;19930;-73
2022/04/03 03:09:46;;;;;;;;;;;;;;;-5.38;72.62;102264.50;6127779;23;19915;-73
2022/04/03 03:12:11;;;;;;;;;;;;;;;-5.38;73.04;102272.16;6127463;23;19916;-73
2022/04/03 03:14:36;;;;;;;;;;;;;;;-5.35;72.74;102280.06;6102857;23;19920;-73
2022/04/03 03:17:03;;;;;;;;;;;;;;;-5.33;73.25;102275.06;6102899;23;19913;-73
2022/04/03 03:19:28;;;;;;;;;;;;;;;-5.28;73.09;102274.63;6103729;23;19913;-73
2022/04/03 03:21:56;;;;;;;;;;;;;;;-5.25;73.18;102268.88;6103167;23;19917;-73
2022/04/03 03:24:21;;;;;;;;;;;;;;;-5.24;74.11;102273.22;6126635;23;20218;-72
2022/04/03 03:26:46;;;;;;;;;;;;;;;-5.27;73.24;102271.31;6103141;23;19912;-72
2022/04/03 03:29:12;;;;;;;;;;;;;;;-5.25;74.16;102274.84;6126544;23;19939;-72
2022/04/03 03:31:37;;;;;;;;;;;;;;;-5.19;74.41;102276.09;6127941;23;19913;-71
2022/04/03 03:34:02;;;;;;;;;;;;;;;-5.11;74.68;102282.69;6103461;23;19912;-73
2022/04/03 03:36:28;;;;;;;;;;;;;;;-5.09;74.21;102281.13;6103099;23;19916;-72
2022/04/03 03:38:54;;;;;;;;;;;;;;;-5.06;74.56;102283.91;6125567;23;20013;-72
2022/04/03 03:41:21;;;;;;;;;;;;;;;-5.05;74.80;102281.47;6102463;23;19912;-73
2022/04/03 03:43:47;;;;;;;;;;;;;;;-5.04;74.07;102282.38;6126957;23;20276;-72
2022/04/03 03:46:12;;;;;;;;;;;;;;;-5.05;73.53;102283.16;6126778;23;19908;-73
2022/04/03 03:48:38;;;;;;;;;;;;;;;-5.09;74.67;102282.00;6101915;23;20000;-72
2022/04/03 03:51:03;;;;;;;;;;;;;;;-5.14;74.10;102278.22;6102875;23;19939;-72
2022/04/03 03:53:29;;;;;;;;;;;;;;;-5.17;74.47;102278.00;6126947;23;19928;-72
2022/04/03 03:55:55;;;;;;;;;;;;;;;-5.19;74.70;102281.22;6126903;23;19988;-72
2022/04/03 03:58:23;;;;;;;;;;;;;;;-5.24;74.26;102279.19;6102333;23;20000;-73
2022/04/03 04:00:48;;;;;;;;;;;;;;;-5.30;74.23;102281.31;6103959;23;19917;-72
2022/04/03 04:03:14;;;;;;;;;;;;;;;-5.32;74.33;102275.16;6102326;23;19970;-72
2022/04/03 04:05:40;;;;;;;;;;;;;;;-5.31;73.99;102274.41;6127776;23;19963;-72
2022/04/03 04:08:05;;;;;;;;;;;;;;;-5.30;74.57;102275.28;6102466;23;20008;-73
2022/04/03 04:10:30;;;;;;;;;;;;;;;-5.27;74.48;102284.09;6101242;23;20022;-73
2022/04/03 04:12:56;;;;;;;;;;;;;;;-5.31;75.01;102279.50;6102569;23;20288;-73
2022/04/03 04:15:22;;;;;;;;;;;;;;;-5.34;74.29;102284.41;6102961;23;20264;-73
2022/04/03 04:17:48;;;;;;;;;;;;;;;-5.40;75.18;102283.94;6103303;23;19912;-72
2022/04/03 04:20:15;;;;;;;;;;;;;;;-5.47;74.81;102279.13;6127074;23;19920;-73
2022/04/03 04:22:41;;;;;;;;;;;;;;;-5.52;74.47;102276.22;6125972;23;20011;-73
2022/04/03 04:25:06;;;;;;;;;;;;;;;-5.51;75.35;102269.44;6126008;23;19959;-73
2022/04/03 04:27:34;;;;;;;;;;;;;;;-5.49;75.96;102280.66;6126262;23;19972;-73
2022/04/03 04:29:59;;;;;;;;;;;;;;;-5.52;75.79;102276.22;6102690;23;19960;-73
2022/04/03 04:32:27;;;;;;;;;;;;;;;-5.52;75.05;102273.66;6102927;23;19916;-72
2022/04/03 04:34:52;;;;;;;;;;;;;;;-5.53;75.65;102264.22;6102901;23;19944;-72
2022/04/03 04:37:18;;;;;;;;;;;;;;;-5.53;75.77;102265.88;6124900;23;20283;-71
2022/04/03 04:39:44;;;;;;;;;;;;;;;-5.58;76.21;102284.28;6102296;23;20353;-73
2022/04/03 04:42:10;;;;;;;;;;;;;;;-5.64;75.36;102294.03;6124798;23;19915;-72
2022/04/03 04:44:35;;;;;;;;;;;;;;;-5.71;75.63;102291.78;6125593;23;19909;-73
2022/04/03 04:47:01;;;;;;;;;;;;;;;-5.76;75.26;102304.19;6101087;23;19962;-72
2022/04/03 04:49:27;;;;;;;;;;;;;;;-5.80;76.02;102304.72;6101452;23;19916;-72
2022/04/03 04:51:52;;;;;;;;;;;;;;;-5.81;75.25;102302.06;6101297;23;20275;-72
2022/04/03 04:54:17;;;;;;;;;;;;;;;-5.88;75.47;102298.13;6101924;23;19991;-73
2022/04/03 04:56:43;;;;;;;;;;;;;;;-5.89;76.26;102310.78;6126306;23;19916;-73
2022/04/03 04:59:08;;;;;;;;;;;;;;;-5.83;76.13;102309.59;6100513;23;19940;-73
2022/04/03 05:01:33;;;;;;;;;;;;;;;-5.77;75.51;102311.75;6101651;23;19947;-72
2022/04/03 05:03:59;;;;;;;;;;;;;;;-5.78;76.44;102313.38;6102035;23;20272;-72
2022/04/03 05:06:26;;;;;;;;;;;;;;;-5.78;75.90;102315.06;6125560;23;20295;-73
2022/04/03 05:08:52;;;;;;;;;;;;;;;-5.77;76.12;102315.19;6101154;23;19944;-72
2022/04/03 05:11:17;;;;;;;;;;;;;;;-5.70;76.45;102315.66;6126585;23;20223;-73
2022/04/03 05:13:43;;;;;;;;;;;;;;;-5.62;76.58;102320.56;6101920;23;19927;-73
2022/04/03 05:16:08;;;;;;;;;;;;;;;-5.56;76.08;102317.59;6102264;23;19912;-73
2022/04/03 05:18:34;;;;;;;;;;;;;;;-5.48;75.50;102308.88;6101102;23;19947;-72
2022/04/03 05:21:02;;;;;;;;;;;;;;;-5.38;75.09;102318.16;6125784;23;20228;-72
2022/04/03 05:23:28;;;;;;;;;;;;;;;-5.30;76.49;102314.53;6101906;23;20235;-72
2022/04/03 05:25:53;;;;;;;;;;;;;;;-5.24;76.09;102316.66;6103136;23;20350;-72
2022/04/03 05:28:20;;;;;;;;;;;;;;;-5.16;75.74;102319.78;6127213;23;20044;-73
2022/04/03 05:30:46;;;;;;;;;;;;;;;-5.09;76.55;102320.34;6128844;23;19913;-73
2022/04/03 05:33:14;;;;;;;;;;;;;;;-4.99;77.22;102324.50;6104066;23;19924;-73
2022/04/03 05:35:39;;;;;;;;;;;;;;;-4.90;77.07;102319.19;6103895;23;19947;-72
2022/04/03 05:38:04;;;;;;;;;;;;;;;-4.83;76.79;102330.78;6102988;23;19913;-72
2022/04/03 05:40:32;;;;;;;;;;;;;;;-4.74;76.33;102328.88;6101843;23;19917;-72
2022/04/03 05:43:00;;;;;;;;;;;;;;;-4.64;76.15;102338.13;6126946;23;19918;-72
2022/04/03 05:45:25;;;;;;;;;;;;;;;-4.54;76.70;102331.28;6103163;23;19932;-73
2022/04/03 05:47:51;;;;;;;;;;;;;;;-4.42;77.41;102331.28;6127758;23;19915;-73
2022/04/03 05:50:19;;;;;;;;;;;;;;;-4.28;77.29;102339.97;6154123;23;20320;-73
2022/04/03 05:52:46;;;;;;;;;;;;;;;-4.18;76.43;102329.59;6127521;23;19913;-72
2022/04/03 05:55:11;;;;;;;;;;;;;;;-4.06;77.34;102329.59;6128260;23;20332;-72
2022/04/03 05:57:37;;;;;;;;;;;;;;;-3.93;76.76;102327.91;6102996;23;19995;-72
2022/04/03 06:00:06;;;;;;;;;;;;;;;-3.78;76.75;102338.34;6128452;23;19951;-72
2022/04/03 06:02:40;;;;;;;;;;;;;;;-3.67;76.33;102327.19;6102930;23;19916;-72
2022/04/03 06:05:06;;;;;;;;;;;;;;;-3.53;76.67;102341.84;6128763;23;19916;-72
2022/04/03 06:07:31;;;;;;;;;;;;;;;-3.40;76.58;102341.03;6103065;23;19916;-72
2022/04/03 06:09:56;;;;;;;;;;;;;;;-3.27;76.57;102340.19;6102525;23;19920;-72
2022/04/03 06:12:21;;;;;;;;;;;;;;;-3.12;76.78;102345.47;6125015;23;19924;-72
2022/04/03 06:14:47;;;;;;;;;;;;;;;-2.98;76.87;102341.28;6102109;23;19920;-71
2022/04/03 06:17:12;;;;;;;;;;;;;;;-2.85;76.99;102340.44;6102854;23;20363;-72
2022/04/03 06:19:37;;;;;;;;;;;;;;;-2.76;76.84;102347.84;6103646;23;19923;-72
2022/04/03 06:22:03;;;;;;;;;;;;;;;-2.66;76.95;102345.09;6126753;23;19991;-71
2022/04/03 06:24:30;;;;;;;;;;;;;;;-2.54;76.06;102342.47;6102989;23;20292;-72
2022/04/03 06:26:56;;;;;;;;;;;;;;;-2.41;76.41;102333.88;6102697;23;20040;-72
2022/04/03 06:29:21;;;;;;;;;;;;;;;-2.27;76.74;102343.38;6103092;23;19973;-72
2022/04/03 06:31:47;;;;;;;;;;;;;;;-2.17;76.18;102338.06;6103124;23;19967;-71
2022/04/03 06:34:12;;;;;;;;;;;;;;;-2.02;75.19;102335.56;6101451;23;19916;-71
2022/04/03 06:36:40;;;;;;;;;;;;;;;-1.86;76.12;102340.00;6126421;23;20360;-71
2022/04/03 06:39:06;;;;;;;;;;;;;;;-1.67;76.23;102346.28;6101960;23;20335;-71
2022/04/03 06:41:34;;;;;;;;;;;;;;;-1.41;76.35;102350.47;6126905;23;20022;-71
2022/04/03 06:44:03;;;;;;;;;;;;;;;-1.14;75.84;102342.66;6125719;23;20016;-71
2022/04/03 06:46:29;;;;;;;;;;;;;;;-0.85;75.67;102341.81;6125205;23;20242;-71
2022/04/03 06:48:55;;;;;;;;;;;;;;;-0.41;74.58;102335.78;6102354;23;20367;-71
2022/04/03 06:51:22;;;;;;;;;;;;;;;0.46;75.55;102341.44;6102883;23;19923;-71
2022/04/03 06:53:48;;;;;;;;;;;;;;;1.41;74.45;102336.84;6102056;23;19947;-70
2022/04/03 06:56:14;;;;;;;;;;;;;;;1.95;73.24;102333.38;6126493;23;19909;-71
2022/04/03 06:58:40;;;;;;;;;;;;;;;2.16;73.10;102339.56;6125829;23;19908;-71
2022/04/03 07:01:05;;;;;;;;;;;;;;;2.28;71.41;102336.66;6101550;23;19958;-71
2022/04/03 07:03:32;;;;;;;;;;;;;;;2.43;70.78;102339.09;6101282;23;19912;-71
2022/04/03 07:05:58;;;;;;;;;;;;;;;2.49;70.24;102341.06;6102974;23;19939;-71
2022/04/03 07:08:23;;;;;;;;;;;;;;;2.53;70.46;102343.88;6125086;23;20277;-71
2022/04/03 07:10:51;;;;;;;;;;;;;;;2.61;69.57;102341.59;6100601;23;20259;-71
2022/04/03 07:13:17;;;;;;;;;;;;;;;2.73;69.17;102342.16;6125928;23;19918;-71
2022/04/03 07:15:44;;;;;;;;;;;;;;;2.84;69.67;102344.34;6101848;23;19951;-71
2022/04/03 07:18:10;;;;;;;;;;;;;;;2.89;68.98;102335.97;6102474;23;20042;-71
2022/04/03 07:20:38;;;;;;;;;;;;;;;2.96;67.99;102350.06;6101861;23;20001;-70
2022/04/03 07:23:04;;;;;;;;;;;;;;;3.18;68.01;102345.81;6100103;23;19913;-70
2022/04/03 07:25:32;;;;;;;;;;;;;;;3.65;68.60;102346.94;6120875;23;19996;-70
2022/04/03 07:28:00;;;;;;;;;;;;;;;4.48;67.32;102344.97;6120596;23;19909;-70
2022/04/03 07:30:26;;;;;;;;;;;;;;;4.84;66.59;102344.56;6097337;23;19917;-70
2022/04/03 07:32:51;;;;;;;;;;;;;;;6.16;68.36;102338.50;6096630;23;20003;-70
2022/04/03 07:35:17;;;;;;;;;;;;;;;9.11;67.03;102345.72;6096806;23;19941;-70
2022/04/03 07:37:45;;;;;;;;;;;;;;;11.84;64.13;102340.44;6096301;23;20340;-71
2022/04/03 07:40:12;;;;;;;;;;;;;;;14.18;59.42;102341.00;6096280;23;19921;-70
2022/04/03 07:42:39;;;;;;;;;;;;;;;16.34;57.08;102348.31;6120158;23;19936;-71
2022/04/03 07:45:07;;;;;;;;;;;;;;;18.28;52.75;102355.03;6093799;23;19917;-72
2022/04/03 07:47:32;;;;;;;;;;;;;;;19.90;49.35;102352.19;6118590;23;19924;-72
2022/04/03 07:49:59;;;;;;;;;;;;;;;21.18;47.65;102355.56;6094865;23;20252;-72
2022/04/03 07:52:24;;;;;;;;;;;;;;;22.32;42.47;102356.09;6094274;23;19917;-72
2022/04/03 07:54:49;;;;;;;;;;;;;;;23.22;42.82;102350.03;6094118;23;20003;-72
2022/04/03 07:57:17;;;;;;;;;;;;;;;23.70;39.38;102354.22;6093929;23;20318;-72
2022/04/03 07:59:42;;;;;;;;;;;;;;;23.78;38.98;102354.75;6118668;23;19924;-73
2022/04/03 08:02:08;;;;;;;;;;;;;;;23.91;38.70;102359.63;6093804;23;20342;-72
2022/04/03 08:04:33;;;;;;;;;;;;;;;24.16;37.70;102360.25;6095377;23;19913;-72
2022/04/03 08:06:58;;;;;;;;;;;;;;;24.08;38.47;102351.69;6096142;23;20329;-72
2022/04/03 08:09:24;;;;;;;;;;;;;;;23.78;36.12;102362.78;6094584;23;19924;-72
2022/04/03 08:11:49;;;;;;;;;;;;;;;23.44;36.85;102356.19;6095633;23;19917;-71
2022/04/03 08:14:14;;;;;;;;;;;;;;;23.05;35.83;102359.56;6093411;23;20343;-72
2022/04/03 08:16:40;;;;;;;;;;;;;;;23.09;36.37;102354.97;6118923;23;20217;-72
2022/04/03 08:19:06;;;;;;;;;;;;;;;23.90;34.81;102363.22;6094759;23;19913;-72
2022/04/03 08:21:31;;;;;;;;;;;;;;;23.60;33.46;102359.09;6094833;23;20277;-71
2022/04/03 08:23:56;;;;;;;;;;;;;;;22.74;33.31;102360.78;6117590;23;20622;-72
2022/04/03 08:26:26;;;;;;;;;;;;;;;22.09;37.26;102352.47;6094280;23;19924;-72
2022/04/03 08:28:51;;;;;;;;;;;;;;;20.85;35.67;102365.50;6118576;23;19913;-72
2022/04/03 08:31:17;;;;;;;;;;;;;;;20.40;34.92;102369.44;6119708;23;19917;-71
2022/04/03 08:33:42;;;;;;;;;;;;;;;21.62;34.59;102358.59;6096612;23;20328;-72
2022/04/03 08:36:07;;;;;;;;;;;;;;;23.14;33.68;102363.69;6097146;23;19917;-72
2022/04/03 08:38:33;;;;;;;;;;;;;;;24.80;32.50;102366.28;6096174;23;19913;-72
2022/04/03 08:40:59;;;;;;;;;;;;;;;26.30;33.84;102357.84;6119682;23;19917;-72
2022/04/03 08:43:24;;;;;;;;;;;;;;;27.69;28.61;102358.03;6117425;23;19913;-72
2022/04/03 08:45:51;;;;;;;;;;;;;;;28.79;31.16;102360.19;6118157;23;19913;-72
2022/04/03 08:48:19;;;;;;;;;;;;;;;29.49;29.03;102365.41;6120083;23;19913;-72
2022/04/03 08:50:47;;;;;;;;;;;;;;;29.99;26.63;102365.59;6119461;23;19917;-72
2022/04/03 08:53:12;;;;;;;;;;;;;;;30.33;27.79;102360.50;6117882;23;20331;-72
2022/04/03 08:55:38;;;;;;;;;;;;;;;31.04;25.33;102360.75;6118941;23;19913;-73
2022/04/03 08:58:03;;;;;;;;;;;;;;;31.51;25.99;102362.69;6094734;23;19971;-72
2022/04/03 09:00:29;;;;;;;;;;;;;;;31.39;23.02;102362.66;6091265;23;19921;-72
2022/04/03 09:02:54;;;;;;;;;;;;;;;32.09;21.32;102365.38;6094404;23;20014;-73
2022/04/03 09:05:20;;;;;;;;;;;;;;;32.42;21.48;102363.69;6119182;23;19921;-72
2022/04/03 09:08:05;;;;;;;;;;;;;;;32.46;22.17;102363.28;6117261;23;19913;-73
2022/04/03 09:10:31;;;;;;;;;;;;;;;31.63;23.17;102359.03;6115359;23;20336;-72
2022/04/03 09:12:56;;;;;;;;;;;;;;;29.25;28.77;102361.69;6117811;23;19917;-72
2022/04/03 09:15:22;;;;;;;;;;;;;;;26.22;26.90;102345.69;6094557;23;20540;-72
2022/04/03 09:17:52;;;;;;;;;;;;;;;23.65;31.61;102340.19;6119176;23;20010;-72
2022/04/03 09:20:22;;;;;;;;;;;;;;;22.43;30.81;102345.06;6121307;23;20382;-72
2022/04/03 09:22:52;;;;;;;;;;;;;;;21.33;30.19;102337.31;6120220;23;19909;-72
2022/04/03 09:25:23;;;;;;;;;;;;;;;20.55;26.57;102338.84;6120483;23;20006;-72
2022/04/03 09:27:49;;;;;;;;;;;;;;;19.67;34.51;102333.31;6119845;23;19972;-72
2022/04/03 09:30:15;;;;;;;;;;;;;;;18.52;29.85;102332.44;6121224;23;20027;-71
2022/04/03 09:32:57;;;;;;;;;;;;;;;17.81;35.50;102326.72;6120676;23;19913;-70
2022/04/03 09:35:27;;;;;;;;;;;;;;;17.63;31.38;102330.56;6119171;23;19912;-70
2022/04/03 09:38:15;;;;;;;;;;;;;;;18.16;35.21;102333.16;6119581;23;20354;-71
2022/04/03 09:40:41;;;;;;;;;;;;;;;18.19;32.66;102326.91;6120610;23;19912;-71
2022/04/03 09:43:22;;;;;;;;;;;;;;;18.12;33.94;102322.63;6118940;23;20347;-71
2022/04/03 09:45:52;;;;;;;;;;;;;;;18.40;35.00;102325.59;6119615;23;20337;-70
2022/04/03 09:48:19;;;;;;;;;;;;;;;19.45;33.35;102320.56;6120365;23;19931;-71
2022/04/03 09:51:22;;;;;;;;;;;;;;;20.65;30.23;102321.66;6120872;23;20251;-73
2022/04/03 09:53:49;;;;;;;;;;;;;;;19.43;33.56;102321.50;6059481;23;19917;-71
2022/04/03 09:56:32;;;;;;;;;;;;;;;17.97;36.37;102316.72;6117516;23;19923;-71
2022/04/03 09:58:59;;;;;;;;;;;;;;;16.79;35.99;102308.91;6117724;23;19957;-71
2022/04/03 10:01:29;;;;;;;;;;;;;;;15.70;37.04;102314.59;6118958;23;19909;-71
2022/04/03 10:03:55;;;;;;;;;;;;;;;14.89;34.01;102311.69;6120518;23;19909;-71
2022/04/03 10:06:24;;;;;;;;;;;;;;;14.44;35.71;102305.75;6120230;23;19905;-71
2022/04/03 10:08:50;;;;;;;;;;;;;;;14.15;39.36;102312.03;6120177;23;19916;-71
2022/04/03 10:11:16;;;;;;;;;;;;;;;14.00;39.16;102304.16;6121485;23;19917;-71
2022/04/03 10:13:45;;;;;;;;;;;;;;;14.25;39.42;102304.06;6121204;23;19909;-71
2022/04/03 10:16:11;;;;;;;;;;;;;;;14.58;38.36;102296.91;6119618;23;19913;-71
2022/04/03 10:18:37;;;;;;;;;;;;;;;15.29;36.64;102285.91;6095739;23;19913;-70
2022/04/03 10:21:02;;;;;;;;;;;;;;;14.62;34.04;102288.13;6095530;23;20279;-70
2022/04/03 10:23:30;;;;;;;;;;;;;;;14.08;37.07;102291.84;6100258;23;19944;-70
2022/04/03 10:25:56;;;;;;;;;;;;;;;15.01;38.37;102283.47;6124348;23;20322;-70
2022/04/03 10:28:23;;;;;;;;;;;;;;;17.24;34.28;102289.72;6125896;23;19913;-71
2022/04/03 10:30:57;;;;;;;;;;;;;;;19.10;31.08;102281.56;6128236;23;19912;-71
2022/04/03 10:33:24;;;;;;;;;;;;;;;21.11;29.95;102280.25;6127577;23;19916;-71
2022/04/03 10:36:01;;;;;;;;;;;;;;;22.31;29.13;102287.59;6127420;23;19913;-71
2022/04/03 10:38:34;;;;;;;;;;;;;;;21.11;31.64;102277.59;6126355;23;19909;-70
2022/04/03 10:40:59;;;;;;;;;;;;;;;19.53;30.75;102277.81;6127581;23;20245;-71
2022/04/03 10:43:31;;;;;;;;;;;;;;;18.51;30.26;102273.13;6103917;23;19912;-70
2022/04/03 10:45:56;;;;;;;;;;;;;;;17.61;34.56;102276.72;6128353;23;19935;-70
2022/04/03 10:48:24;;;;;;;;;;;;;;;16.37;32.09;102284.78;6127951;23;20323;-70
2022/04/03 10:51:02;;;;;;;;;;;;;;;15.17;38.80;102276.31;6128571;23;19912;-70
2022/04/03 10:53:31;;;;;;;;;;;;;;;13.71;35.07;102273.50;6127368;23;19955;-70
2022/04/03 10:55:57;;;;;;;;;;;;;;;12.95;38.54;102269.97;6127772;23;20323;-71
2022/04/03 10:58:22;;;;;;;;;;;;;;;12.74;38.79;102268.16;6103426;23;19912;-70
2022/04/03 11:00:49;;;;;;;;;;;;;;;12.72;40.17;102265.53;6103681;23;19919;-70
2022/04/03 11:03:14;;;;;;;;;;;;;;;12.77;37.73;102257.66;6127519;23;20315;-70
2022/04/03 11:05:45;;;;;;;;;;;;;;;13.77;37.88;102259.44;6128079;23;20292;-70
2022/04/03 11:08:15;;;;;;;;;;;;;;;15.21;36.16;102257.81;6102704;23;19967;-70
2022/04/03 11:10:53;;;;;;;;;;;;;;;16.68;33.73;102255.25;6127751;23;19944;-71
2022/04/03 11:13:20;;;;;;;;;;;;;;;16.86;33.49;102249.69;6127162;23;19912;-70
2022/04/03 11:15:46;;;;;;;;;;;;;;;16.06;34.92;102258.72;6127489;23;19936;-71
2022/04/03 11:18:30;;;;;;;;;;;;;;;15.15;35.58;102247.28;6127231;23;19919;-69
2022/04/03 11:21:16;;;;;;;;;;;;;;;14.33;35.88;102249.56;6126435;23;20316;-70
2022/04/03 11:24:04;;;;;;;;;;;;;;;13.46;37.75;102254.19;6102925;23;19917;-70
2022/04/03 11:26:33;;;;;;;;;;;;;;;12.70;39.00;102245.38;6106990;23;19917;-70
2022/04/03 11:28:59;;;;;;;;;;;;;;;12.08;39.04;102248.69;6126904;23;19924;-70
2022/04/03 11:31:24;;;;;;;;;;;;;;;11.43;39.33;102248.28;6127591;23;19932;-70
2022/04/03 11:33:50;;;;;;;;;;;;;;;10.84;40.54;102238.16;6127701;23;20240;-70
2022/04/03 11:36:16;;;;;;;;;;;;;;;10.50;41.20;102237.81;6102603;23;19945;-70
2022/04/03 11:38:42;;;;;;;;;;;;;;;10.37;42.00;102236.78;6127258;23;20013;-70
2022/04/03 11:41:17;;;;;;;;;;;;;;;10.31;41.55;102227.09;6126866;23;19908;-70
2022/04/03 11:43:54;;;;;;;;;;;;;;;10.45;40.71;102223.78;6127184;23;20219;-70
2022/04/03 11:46:22;;;;;;;;;;;;;;;10.62;41.37;102232.72;6127622;23;19908;-69
2022/04/03 11:48:48;;;;;;;;;;;;;;;10.47;41.35;102225.53;6127662;23;19915;-70
2022/04/03 11:51:15;;;;;;;;;;;;;;;10.17;40.29;102234.78;6102721;23;19917;-69
2022/04/03 11:53:42;;;;;;;;;;;;;;;10.16;40.40;102232.16;6126926;23;19913;-71
2022/04/03 11:56:08;;;;;;;;;;;;;;;10.13;41.46;102226.84;6126932;23;19909;-70
2022/04/03 11:58:36;;;;;;;;;;;;;;;10.05;40.66;102232.00;6126924;23;19933;-70
2022/04/03 12:01:02;;;;;;;;;;;;;;;9.95;41.40;102223.16;6126707;23;20405;-69
2022/04/03 12:03:27;;;;;;;;;;;;;;;9.81;41.65;102225.59;6102997;23;19913;-70
2022/04/03 12:06:12;;;;;;;;;;;;;;;9.84;40.95;102230.88;6103151;23;20034;-71
2022/04/03 12:08:41;;;;;;;;;;;;;;;9.83;41.32;102223.88;6126686;23;19963;-70
2022/04/03 12:11:16;;;;;;;;;;;;;;;9.76;40.96;102221.16;6126761;23;19916;-70
2022/04/03 12:13:42;;;;;;;;;;;;;;;9.45;41.98;102224.22;6126443;23;19912;-70
2022/04/03 12:16:07;;;;;;;;;;;;;;;9.18;42.94;102217.69;6102500;23;19943;-71
2022/04/03 12:18:48;;;;;;;;;;;;;;;8.74;44.05;102214.34;6127244;23;19912;-69
2022/04/03 12:21:13;;;;;;;;;;;;;;;8.22;44.21;102228.13;6102047;23;19971;-70
2022/04/03 12:23:59;;;;;;;;;;;;;;;7.94;44.53;102218.84;6101664;23;19960;-70
2022/04/03 12:26:24;;;;;;;;;;;;;;;8.66;46.07;102217.69;6126985;23;19936;-70
2022/04/03 12:28:49;;;;;;;;;;;;;;;9.70;43.92;102214.97;6101627;23;19948;-70
2022/04/03 12:31:15;;;;;;;;;;;;;;;10.30;42.55;102219.19;6102291;23;19975;-69
2022/04/03 12:33:40;;;;;;;;;;;;;;;10.76;43.08;102209.25;6102084;23;20292;-69
2022/04/03 12:36:07;;;;;;;;;;;;;;;10.99;42.45;102217.34;6126910;23;20289;-70